sensor_id;sensor_type;location;lat;lon;timestamp;P1;durP1;ratioP1;P2;durP2;ratioP2
2039;SDS011;1025;42.686;23.350;2022-09-21T00:00:14;3.63;;;2.53;;
2039;SDS011;1025;42.686;23.350;2022-09-21T00:02:41;3.27;;;2.97;;
2039;SDS011;1025;42.686;23.350;2022-09-21T00:05:08;5.13;;;3.90;;
2039;SDS011;1025;42.686;23.350;2022-09-21T00:07:36;2.87;;;2.70;;
2039;SDS011;1025;42.686;23.350;2022-09-21T00:10:02;2.83;;;2.63;;
2039;SDS011;1025;42.686;23.350;2022-09-21T00:12:29;10.10;;;4.63;;
2039;SDS011;1025;42.686;23.350;2022-09-21T00:14:55;3.07;;;2.07;;
2039;SDS011;1025;42.686;23.350;2022-09-21T00:17:22;2.77;;;2.57;;
2039;SDS011;1025;42.686;23.350;2022-09-21T00:19:49;2.93;;;2.73;;
2039;SDS011;1025;42.686;23.350;2022-09-21T00:22:16;3.50;;;3.30;;
2039;SDS011;1025;42.686;23.350;2022-09-21T00:24:44;3.37;;;3.17;;
2039;SDS011;1025;42.686;23.350;2022-09-21T00:27:10;2.80;;;2.70;;
2039;SDS011;1025;42.686;23.350;2022-09-21T00:29:37;3.53;;;2.90;;
2039;SDS011;1025;42.686;23.350;2022-09-21T00:32:04;2.73;;;2.60;;
2039;SDS011;1025;42.686;23.350;2022-09-21T00:34:30;2.70;;;2.50;;
2039;SDS011;1025;42.686;23.350;2022-09-21T00:36:57;2.33;;;2.23;;
2039;SDS011;1025;42.686;23.350;2022-09-21T00:39:23;2.50;;;2.30;;
2039;SDS011;1025;42.686;23.350;2022-09-21T00:41:51;2.57;;;2.47;;
2039;SDS011;1025;42.686;23.350;2022-09-21T00:44:28;2.20;;;2.10;;
2039;SDS011;1025;42.686;23.350;2022-09-21T00:46:55;3.07;;;2.93;;
2039;SDS011;1025;42.686;23.350;2022-09-21T00:49:23;2.23;;;2.10;;
2039;SDS011;1025;42.686;23.350;2022-09-21T00:51:50;2.50;;;2.40;;
2039;SDS011;1025;42.686;23.350;2022-09-21T00:54:19;2.47;;;2.27;;
2039;SDS011;1025;42.686;23.350;2022-09-21T00:56:48;3.80;;;3.00;;
2039;SDS011;1025;42.686;23.350;2022-09-21T00:59:15;2.20;;;2.10;;
2039;SDS011;1025;42.686;23.350;2022-09-21T01:01:43;2.90;;;2.80;;
2039;SDS011;1025;42.686;23.350;2022-09-21T01:04:09;2.30;;;2.10;;
2039;SDS011;1025;42.686;23.350;2022-09-21T01:06:37;2.23;;;2.13;;
2039;SDS011;1025;42.686;23.350;2022-09-21T01:09:05;2.93;;;2.73;;
2039;SDS011;1025;42.686;23.350;2022-09-21T01:11:32;2.70;;;2.50;;
2039;SDS011;1025;42.686;23.350;2022-09-21T01:16:49;4.10;;;2.40;;
2039;SDS011;1025;42.686;23.350;2022-09-21T01:19:24;3.50;;;2.70;;
2039;SDS011;1025;42.686;23.350;2022-09-21T01:21:55;4.63;;;4.43;;
2039;SDS011;1025;42.686;23.350;2022-09-21T01:30:18;2.20;;;2.10;;
2039;SDS011;1025;42.686;23.350;2022-09-21T01:32:46;2.60;;;2.47;;
2039;SDS011;1025;42.686;23.350;2022-09-21T01:35:15;2.80;;;2.70;;
2039;SDS011;1025;42.686;23.350;2022-09-21T01:37:44;1.80;;;1.80;;
2039;SDS011;1025;42.686;23.350;2022-09-21T01:40:13;3.13;;;2.93;;
2039;SDS011;1025;42.686;23.350;2022-09-21T01:42:42;3.30;;;3.10;;
2039;SDS011;1025;42.686;23.350;2022-09-21T01:45:10;2.57;;;2.37;;
2039;SDS011;1025;42.686;23.350;2022-09-21T01:47:41;3.43;;;2.77;;
2039;SDS011;1025;42.686;23.350;2022-09-21T01:50:08;3.47;;;3.27;;
2039;SDS011;1025;42.686;23.350;2022-09-21T01:52:36;3.20;;;2.90;;
2039;SDS011;1025;42.686;23.350;2022-09-21T01:55:06;3.50;;;3.20;;
2039;SDS011;1025;42.686;23.350;2022-09-21T01:57:39;2.67;;;2.57;;
2039;SDS011;1025;42.686;23.350;2022-09-21T02:00:07;2.50;;;2.40;;
2039;SDS011;1025;42.686;23.350;2022-09-21T02:02:35;3.03;;;2.83;;
2039;SDS011;1025;42.686;23.350;2022-09-21T02:05:05;3.93;;;2.23;;
2039;SDS011;1025;42.686;23.350;2022-09-21T02:07:32;3.43;;;3.23;;
2039;SDS011;1025;42.686;23.350;2022-09-21T02:09:59;4.13;;;2.43;;
2039;SDS011;1025;42.686;23.350;2022-09-21T02:12:27;2.47;;;2.37;;
2039;SDS011;1025;42.686;23.350;2022-09-21T02:14:55;2.97;;;2.87;;
2039;SDS011;1025;42.686;23.350;2022-09-21T02:17:26;3.43;;;3.17;;
2039;SDS011;1025;42.686;23.350;2022-09-21T02:19:56;2.37;;;2.27;;
2039;SDS011;1025;42.686;23.350;2022-09-21T02:22:31;2.47;;;2.37;;
2039;SDS011;1025;42.686;23.350;2022-09-21T02:25:03;3.20;;;3.00;;
2039;SDS011;1025;42.686;23.350;2022-09-21T02:27:31;2.60;;;2.40;;
2039;SDS011;1025;42.686;23.350;2022-09-21T02:30:02;2.30;;;2.20;;
2039;SDS011;1025;42.686;23.350;2022-09-21T02:32:30;2.63;;;2.53;;
2039;SDS011;1025;42.686;23.350;2022-09-21T02:35:02;2.37;;;2.27;;
2039;SDS011;1025;42.686;23.350;2022-09-21T02:37:34;2.80;;;2.20;;
2039;SDS011;1025;42.686;23.350;2022-09-21T02:40:03;3.17;;;2.97;;
2039;SDS011;1025;42.686;23.350;2022-09-21T02:42:33;2.20;;;2.10;;
2039;SDS011;1025;42.686;23.350;2022-09-21T02:45:03;2.47;;;2.37;;
2039;SDS011;1025;42.686;23.350;2022-09-21T02:47:32;3.23;;;2.17;;
2039;SDS011;1025;42.686;23.350;2022-09-21T02:50:02;2.43;;;2.23;;
2039;SDS011;1025;42.686;23.350;2022-09-21T02:52:29;6.33;;;3.30;;
2039;SDS011;1025;42.686;23.350;2022-09-21T02:54:58;3.17;;;2.80;;
2039;SDS011;1025;42.686;23.350;2022-09-21T02:57:25;2.90;;;2.70;;
2039;SDS011;1025;42.686;23.350;2022-09-21T02:59:52;2.83;;;2.63;;
2039;SDS011;1025;42.686;23.350;2022-09-21T03:02:19;2.80;;;2.60;;
2039;SDS011;1025;42.686;23.350;2022-09-21T03:04:46;3.10;;;2.80;;
2039;SDS011;1025;42.686;23.350;2022-09-21T03:07:13;2.80;;;2.70;;
2039;SDS011;1025;42.686;23.350;2022-09-21T03:09:40;2.60;;;2.50;;
2039;SDS011;1025;42.686;23.350;2022-09-21T03:12:08;3.33;;;3.13;;
2039;SDS011;1025;42.686;23.350;2022-09-21T03:14:34;2.70;;;2.60;;
2039;SDS011;1025;42.686;23.350;2022-09-21T03:17:01;3.10;;;2.80;;
2039;SDS011;1025;42.686;23.350;2022-09-21T03:19:27;3.93;;;3.60;;
2039;SDS011;1025;42.686;23.350;2022-09-21T03:21:54;2.60;;;2.40;;
2039;SDS011;1025;42.686;23.350;2022-09-21T03:24:21;3.13;;;2.93;;
2039;SDS011;1025;42.686;23.350;2022-09-21T03:27:01;2.50;;;2.40;;
2039;SDS011;1025;42.686;23.350;2022-09-21T03:29:29;3.87;;;3.53;;
2039;SDS011;1025;42.686;23.350;2022-09-21T03:31:56;2.53;;;2.43;;
2039;SDS011;1025;42.686;23.350;2022-09-21T03:34:26;5.93;;;2.97;;
2039;SDS011;1025;42.686;23.350;2022-09-21T03:36:55;3.93;;;3.67;;
2039;SDS011;1025;42.686;23.350;2022-09-21T03:39:22;2.37;;;2.27;;
2039;SDS011;1025;42.686;23.350;2022-09-21T03:41:48;3.37;;;3.07;;
2039;SDS011;1025;42.686;23.350;2022-09-21T03:44:14;4.50;;;4.20;;
2039;SDS011;1025;42.686;23.350;2022-09-21T03:46:43;4.30;;;4.10;;
2039;SDS011;1025;42.686;23.350;2022-09-21T03:49:09;8.43;;;3.97;;
2039;SDS011;1025;42.686;23.350;2022-09-21T03:51:36;3.60;;;3.30;;
2039;SDS011;1025;42.686;23.350;2022-09-21T03:54:03;5.20;;;3.67;;
2039;SDS011;1025;42.686;23.350;2022-09-21T03:56:30;3.10;;;2.90;;
2039;SDS011;1025;42.686;23.350;2022-09-21T03:58:56;3.70;;;3.40;;
2039;SDS011;1025;42.686;23.350;2022-09-21T04:01:23;3.53;;;3.33;;
2039;SDS011;1025;42.686;23.350;2022-09-21T04:03:51;3.33;;;3.13;;
2039;SDS011;1025;42.686;23.350;2022-09-21T04:06:18;4.33;;;3.30;;
2039;SDS011;1025;42.686;23.350;2022-09-21T04:08:45;2.80;;;2.70;;
2039;SDS011;1025;42.686;23.350;2022-09-21T04:11:12;4.57;;;4.20;;
2039;SDS011;1025;42.686;23.350;2022-09-21T04:13:39;3.47;;;3.37;;
2039;SDS011;1025;42.686;23.350;2022-09-21T04:16:06;3.57;;;3.33;;
2039;SDS011;1025;42.686;23.350;2022-09-21T04:18:33;4.07;;;3.80;;
2039;SDS011;1025;42.686;23.350;2022-09-21T04:21:01;3.77;;;3.57;;
2039;SDS011;1025;42.686;23.350;2022-09-21T04:23:28;3.87;;;3.43;;
2039;SDS011;1025;42.686;23.350;2022-09-21T04:25:54;5.10;;;4.50;;
2039;SDS011;1025;42.686;23.350;2022-09-21T04:28:22;7.20;;;6.50;;
2039;SDS011;1025;42.686;23.350;2022-09-21T04:30:51;9.03;;;5.07;;
2039;SDS011;1025;42.686;23.350;2022-09-21T04:33:17;4.50;;;4.20;;
2039;SDS011;1025;42.686;23.350;2022-09-21T04:35:44;4.83;;;4.43;;
2039;SDS011;1025;42.686;23.350;2022-09-21T04:38:12;5.40;;;5.10;;
2039;SDS011;1025;42.686;23.350;2022-09-21T04:40:38;5.50;;;5.10;;
2039;SDS011;1025;42.686;23.350;2022-09-21T04:43:05;5.23;;;4.73;;
2039;SDS011;1025;42.686;23.350;2022-09-21T04:45:32;5.53;;;4.97;;
2039;SDS011;1025;42.686;23.350;2022-09-21T04:47:58;4.00;;;3.80;;
2039;SDS011;1025;42.686;23.350;2022-09-21T04:50:25;3.23;;;3.03;;
2039;SDS011;1025;42.686;23.350;2022-09-21T04:52:52;5.73;;;3.20;;
2039;SDS011;1025;42.686;23.350;2022-09-21T04:55:19;5.80;;;5.20;;
2039;SDS011;1025;42.686;23.350;2022-09-21T04:57:46;4.70;;;4.40;;
2039;SDS011;1025;42.686;23.350;2022-09-21T05:00:13;4.97;;;3.77;;
2039;SDS011;1025;42.686;23.350;2022-09-21T05:02:40;3.50;;;3.40;;
2039;SDS011;1025;42.686;23.350;2022-09-21T05:05:06;4.93;;;3.80;;
2039;SDS011;1025;42.686;23.350;2022-09-21T05:07:33;3.10;;;2.90;;
2039;SDS011;1025;42.686;23.350;2022-09-21T05:10:00;3.93;;;3.63;;
2039;SDS011;1025;42.686;23.350;2022-09-21T05:12:30;6.20;;;4.07;;
2039;SDS011;1025;42.686;23.350;2022-09-21T05:14:57;6.00;;;3.67;;
2039;SDS011;1025;42.686;23.350;2022-09-21T05:17:24;3.97;;;3.77;;
2039;SDS011;1025;42.686;23.350;2022-09-21T05:19:50;4.63;;;3.53;;
2039;SDS011;1025;42.686;23.350;2022-09-21T05:22:17;6.00;;;4.17;;
2039;SDS011;1025;42.686;23.350;2022-09-21T05:24:44;3.40;;;3.20;;
2039;SDS011;1025;42.686;23.350;2022-09-21T05:27:10;5.83;;;4.17;;
2039;SDS011;1025;42.686;23.350;2022-09-21T05:29:39;3.27;;;3.07;;
2039;SDS011;1025;42.686;23.350;2022-09-21T05:32:06;4.87;;;4.53;;
2039;SDS011;1025;42.686;23.350;2022-09-21T05:34:40;3.23;;;3.10;;
2039;SDS011;1025;42.686;23.350;2022-09-21T05:37:11;2.83;;;2.73;;
2039;SDS011;1025;42.686;23.350;2022-09-21T05:39:42;4.47;;;4.20;;
2039;SDS011;1025;42.686;23.350;2022-09-21T05:42:09;4.10;;;3.00;;
2039;SDS011;1025;42.686;23.350;2022-09-21T05:44:36;6.93;;;4.43;;
2039;SDS011;1025;42.686;23.350;2022-09-21T05:47:06;4.37;;;3.40;;
2039;SDS011;1025;42.686;23.350;2022-09-21T05:49:41;4.20;;;3.90;;
2039;SDS011;1025;42.686;23.350;2022-09-21T05:52:12;7.93;;;5.70;;
2039;SDS011;1025;42.686;23.350;2022-09-21T05:54:44;6.80;;;5.50;;
2039;SDS011;1025;42.686;23.350;2022-09-21T05:57:14;4.90;;;4.63;;
2039;SDS011;1025;42.686;23.350;2022-09-21T05:59:45;9.97;;;4.53;;
2039;SDS011;1025;42.686;23.350;2022-09-21T06:02:19;3.80;;;3.60;;
2039;SDS011;1025;42.686;23.350;2022-09-21T06:04:49;4.10;;;3.57;;
2039;SDS011;1025;42.686;23.350;2022-09-21T06:07:16;4.97;;;4.57;;
2039;SDS011;1025;42.686;23.350;2022-09-21T06:09:42;3.03;;;2.90;;
2039;SDS011;1025;42.686;23.350;2022-09-21T06:12:09;4.43;;;4.13;;
2039;SDS011;1025;42.686;23.350;2022-09-21T06:14:36;5.00;;;3.70;;
2039;SDS011;1025;42.686;23.350;2022-09-21T06:17:03;3.80;;;3.50;;
2039;SDS011;1025;42.686;23.350;2022-09-21T06:19:31;3.40;;;3.30;;
2039;SDS011;1025;42.686;23.350;2022-09-21T06:21:57;7.37;;;3.50;;
2039;SDS011;1025;42.686;23.350;2022-09-21T06:24:24;3.93;;;3.63;;
2039;SDS011;1025;42.686;23.350;2022-09-21T06:26:51;3.50;;;3.30;;
2039;SDS011;1025;42.686;23.350;2022-09-21T06:29:17;3.47;;;3.17;;
2039;SDS011;1025;42.686;23.350;2022-09-21T06:31:47;3.03;;;2.70;;
2039;SDS011;1025;42.686;23.350;2022-09-21T06:34:14;3.13;;;2.90;;
2039;SDS011;1025;42.686;23.350;2022-09-21T06:36:42;3.60;;;3.30;;
2039;SDS011;1025;42.686;23.350;2022-09-21T06:39:09;5.20;;;4.07;;
2039;SDS011;1025;42.686;23.350;2022-09-21T06:41:36;2.83;;;2.60;;
2039;SDS011;1025;42.686;23.350;2022-09-21T06:44:03;3.10;;;2.90;;
2039;SDS011;1025;42.686;23.350;2022-09-21T06:46:29;3.00;;;2.50;;
2039;SDS011;1025;42.686;23.350;2022-09-21T06:48:56;2.00;;;1.90;;
2039;SDS011;1025;42.686;23.350;2022-09-21T06:51:22;2.23;;;2.03;;
2039;SDS011;1025;42.686;23.350;2022-09-21T06:53:54;3.10;;;1.80;;
2039;SDS011;1025;42.686;23.350;2022-09-21T06:56:21;2.10;;;2.00;;
2039;SDS011;1025;42.686;23.350;2022-09-21T06:58:48;2.30;;;1.80;;
2039;SDS011;1025;42.686;23.350;2022-09-21T07:01:14;1.10;;;1.10;;
2039;SDS011;1025;42.686;23.350;2022-09-21T07:03:41;1.83;;;1.73;;
2039;SDS011;1025;42.686;23.350;2022-09-21T07:06:08;2.10;;;2.00;;
2039;SDS011;1025;42.686;23.350;2022-09-21T07:08:36;2.00;;;1.80;;
2039;SDS011;1025;42.686;23.350;2022-09-21T07:11:05;1.80;;;1.70;;
2039;SDS011;1025;42.686;23.350;2022-09-21T07:13:32;2.23;;;2.13;;
2039;SDS011;1025;42.686;23.350;2022-09-21T07:16:01;2.10;;;2.00;;
2039;SDS011;1025;42.686;23.350;2022-09-21T07:18:28;2.40;;;2.17;;
2039;SDS011;1025;42.686;23.350;2022-09-21T07:20:55;2.10;;;2.00;;
2039;SDS011;1025;42.686;23.350;2022-09-21T07:23:21;3.40;;;2.67;;
2039;SDS011;1025;42.686;23.350;2022-09-21T07:25:48;2.40;;;2.07;;
2039;SDS011;1025;42.686;23.350;2022-09-21T07:28:17;4.07;;;2.00;;
2039;SDS011;1025;42.686;23.350;2022-09-21T07:30:44;1.90;;;1.80;;
2039;SDS011;1025;42.686;23.350;2022-09-21T07:33:10;2.80;;;2.60;;
2039;SDS011;1025;42.686;23.350;2022-09-21T07:35:37;2.00;;;1.90;;
2039;SDS011;1025;42.686;23.350;2022-09-21T07:38:05;2.77;;;2.57;;
2039;SDS011;1025;42.686;23.350;2022-09-21T07:40:32;1.73;;;1.63;;
2039;SDS011;1025;42.686;23.350;2022-09-21T07:42:59;2.10;;;2.00;;
2039;SDS011;1025;42.686;23.350;2022-09-21T07:45:27;2.07;;;1.97;;
2039;SDS011;1025;42.686;23.350;2022-09-21T07:47:55;2.37;;;2.10;;
2039;SDS011;1025;42.686;23.350;2022-09-21T07:50:21;1.70;;;1.60;;
2039;SDS011;1025;42.686;23.350;2022-09-21T07:52:48;1.87;;;1.77;;
2039;SDS011;1025;42.686;23.350;2022-09-21T07:55:15;1.83;;;1.73;;
2039;SDS011;1025;42.686;23.350;2022-09-21T07:57:41;3.50;;;2.30;;
2039;SDS011;1025;42.686;23.350;2022-09-21T08:00:38;2.93;;;2.83;;
2039;SDS011;1025;42.686;23.350;2022-09-21T08:03:05;2.10;;;2.00;;
2039;SDS011;1025;42.686;23.350;2022-09-21T08:05:31;1.90;;;1.80;;
2039;SDS011;1025;42.686;23.350;2022-09-21T08:07:58;2.20;;;2.10;;
2039;SDS011;1025;42.686;23.350;2022-09-21T08:10:24;1.77;;;1.67;;
2039;SDS011;1025;42.686;23.350;2022-09-21T08:12:52;1.70;;;1.60;;
2039;SDS011;1025;42.686;23.350;2022-09-21T08:15:19;2.17;;;1.97;;
2039;SDS011;1025;42.686;23.350;2022-09-21T08:17:47;1.77;;;1.67;;
2039;SDS011;1025;42.686;23.350;2022-09-21T08:20:15;7.33;;;2.30;;
2039;SDS011;1025;42.686;23.350;2022-09-21T08:22:42;2.80;;;2.60;;
2039;SDS011;1025;42.686;23.350;2022-09-21T08:25:08;1.97;;;1.87;;
2039;SDS011;1025;42.686;23.350;2022-09-21T08:27:35;2.23;;;2.13;;
2039;SDS011;1025;42.686;23.350;2022-09-21T08:30:05;1.90;;;1.80;;
2039;SDS011;1025;42.686;23.350;2022-09-21T08:32:32;1.47;;;1.47;;
2039;SDS011;1025;42.686;23.350;2022-09-21T08:35:00;1.57;;;1.47;;
2039;SDS011;1025;42.686;23.350;2022-09-21T08:37:27;2.07;;;1.87;;
2039;SDS011;1025;42.686;23.350;2022-09-21T08:39:53;2.70;;;2.17;;
2039;SDS011;1025;42.686;23.350;2022-09-21T08:42:30;2.90;;;1.67;;
2039;SDS011;1025;42.686;23.350;2022-09-21T08:45:02;1.63;;;1.33;;
2039;SDS011;1025;42.686;23.350;2022-09-21T08:47:34;1.50;;;1.40;;
2039;SDS011;1025;42.686;23.350;2022-09-21T08:50:03;1.47;;;1.47;;
2039;SDS011;1025;42.686;23.350;2022-09-21T08:52:31;1.90;;;1.80;;
2039;SDS011;1025;42.686;23.350;2022-09-21T08:54:58;3.20;;;3.10;;
2039;SDS011;1025;42.686;23.350;2022-09-21T08:57:28;9.30;;;2.07;;
2039;SDS011;1025;42.686;23.350;2022-09-21T08:59:55;2.00;;;1.90;;
2039;SDS011;1025;42.686;23.350;2022-09-21T09:02:32;0.90;;;0.90;;
2039;SDS011;1025;42.686;23.350;2022-09-21T09:05:00;1.73;;;1.63;;
2039;SDS011;1025;42.686;23.350;2022-09-21T09:07:34;2.03;;;1.80;;
2039;SDS011;1025;42.686;23.350;2022-09-21T09:10:12;2.50;;;2.20;;
2039;SDS011;1025;42.686;23.350;2022-09-21T09:12:47;1.80;;;1.70;;
2039;SDS011;1025;42.686;23.350;2022-09-21T09:15:18;1.23;;;1.00;;
2039;SDS011;1025;42.686;23.350;2022-09-21T09:17:51;4.23;;;2.37;;
2039;SDS011;1025;42.686;23.350;2022-09-21T09:20:18;2.00;;;1.90;;
2039;SDS011;1025;42.686;23.350;2022-09-21T09:22:47;1.57;;;1.47;;
2039;SDS011;1025;42.686;23.350;2022-09-21T09:25:16;2.07;;;1.97;;
2039;SDS011;1025;42.686;23.350;2022-09-21T09:27:44;1.20;;;1.20;;
2039;SDS011;1025;42.686;23.350;2022-09-21T09:30:13;1.43;;;1.27;;
2039;SDS011;1025;42.686;23.350;2022-09-21T09:32:43;1.30;;;1.30;;
2039;SDS011;1025;42.686;23.350;2022-09-21T09:35:14;1.40;;;1.40;;
2039;SDS011;1025;42.686;23.350;2022-09-21T09:37:41;1.43;;;1.43;;
2039;SDS011;1025;42.686;23.350;2022-09-21T09:40:12;1.63;;;1.53;;
2039;SDS011;1025;42.686;23.350;2022-09-21T09:42:41;1.33;;;1.33;;
2039;SDS011;1025;42.686;23.350;2022-09-21T09:45:21;2.07;;;1.93;;
2039;SDS011;1025;42.686;23.350;2022-09-21T09:47:54;4.93;;;2.77;;
2039;SDS011;1025;42.686;23.350;2022-09-21T09:50:26;1.20;;;1.10;;
2039;SDS011;1025;42.686;23.350;2022-09-21T09:52:55;1.60;;;1.50;;
2039;SDS011;1025;42.686;23.350;2022-09-21T09:55:26;1.93;;;1.83;;
2039;SDS011;1025;42.686;23.350;2022-09-21T09:57:54;2.63;;;1.57;;
2039;SDS011;1025;42.686;23.350;2022-09-21T10:00:22;1.00;;;1.00;;
2039;SDS011;1025;42.686;23.350;2022-09-21T10:02:49;2.30;;;2.10;;
2039;SDS011;1025;42.686;23.350;2022-09-21T10:05:20;1.97;;;1.87;;
2039;SDS011;1025;42.686;23.350;2022-09-21T10:07:47;2.70;;;1.90;;
2039;SDS011;1025;42.686;23.350;2022-09-21T10:10:21;2.50;;;1.37;;
2039;SDS011;1025;42.686;23.350;2022-09-21T10:12:49;2.00;;;1.90;;
2039;SDS011;1025;42.686;23.350;2022-09-21T10:15:17;1.43;;;1.33;;
2039;SDS011;1025;42.686;23.350;2022-09-21T10:17:44;1.00;;;1.00;;
2039;SDS011;1025;42.686;23.350;2022-09-21T10:20:13;1.00;;;1.00;;
2039;SDS011;1025;42.686;23.350;2022-09-21T10:22:40;1.97;;;1.87;;
2039;SDS011;1025;42.686;23.350;2022-09-21T10:25:13;2.23;;;2.13;;
2039;SDS011;1025;42.686;23.350;2022-09-21T10:27:41;1.40;;;1.30;;
2039;SDS011;1025;42.686;23.350;2022-09-21T10:30:15;1.40;;;1.30;;
2039;SDS011;1025;42.686;23.350;2022-09-21T10:32:57;1.53;;;1.37;;
2039;SDS011;1025;42.686;23.350;2022-09-21T10:35:24;2.80;;;1.60;;
2039;SDS011;1025;42.686;23.350;2022-09-21T10:38:07;1.83;;;1.77;;
2039;SDS011;1025;42.686;23.350;2022-09-21T10:40:34;1.00;;;1.00;;
2039;SDS011;1025;42.686;23.350;2022-09-21T10:43:01;0.87;;;0.87;;
2039;SDS011;1025;42.686;23.350;2022-09-21T10:45:30;0.90;;;0.90;;
2039;SDS011;1025;42.686;23.350;2022-09-21T10:47:57;1.50;;;1.40;;
2039;SDS011;1025;42.686;23.350;2022-09-21T10:50:26;1.57;;;1.47;;
2039;SDS011;1025;42.686;23.350;2022-09-21T10:52:54;1.67;;;1.57;;
2039;SDS011;1025;42.686;23.350;2022-09-21T10:55:22;1.53;;;1.07;;
2039;SDS011;1025;42.686;23.350;2022-09-21T10:57:49;1.53;;;1.10;;
2039;SDS011;1025;42.686;23.350;2022-09-21T11:00:26;1.07;;;1.00;;
2039;SDS011;1025;42.686;23.350;2022-09-21T11:03:00;2.20;;;1.60;;
2039;SDS011;1025;42.686;23.350;2022-09-21T11:05:29;1.90;;;1.80;;
2039;SDS011;1025;42.686;23.350;2022-09-21T11:07:58;1.33;;;1.33;;
2039;SDS011;1025;42.686;23.350;2022-09-21T11:10:27;0.80;;;0.80;;
2039;SDS011;1025;42.686;23.350;2022-09-21T11:12:59;1.30;;;1.20;;
2039;SDS011;1025;42.686;23.350;2022-09-21T11:15:31;1.00;;;1.00;;
2039;SDS011;1025;42.686;23.350;2022-09-21T11:18:03;1.57;;;1.50;;
2039;SDS011;1025;42.686;23.350;2022-09-21T11:20:32;0.70;;;0.60;;
2039;SDS011;1025;42.686;23.350;2022-09-21T11:23:03;2.27;;;2.17;;
2039;SDS011;1025;42.686;23.350;2022-09-21T11:25:33;1.10;;;1.00;;
2039;SDS011;1025;42.686;23.350;2022-09-21T11:28:04;2.10;;;1.43;;
2039;SDS011;1025;42.686;23.350;2022-09-21T11:30:39;5.03;;;1.40;;
2039;SDS011;1025;42.686;23.350;2022-09-21T11:33:12;1.63;;;1.53;;
2039;SDS011;1025;42.686;23.350;2022-09-21T11:35:46;3.47;;;1.60;;
2039;SDS011;1025;42.686;23.350;2022-09-21T11:38:17;1.33;;;1.23;;
2039;SDS011;1025;42.686;23.350;2022-09-21T11:40:55;1.27;;;1.27;;
2039;SDS011;1025;42.686;23.350;2022-09-21T11:46:11;1.00;;;1.00;;
2039;SDS011;1025;42.686;23.350;2022-09-21T11:48:49;1.57;;;1.47;;
2039;SDS011;1025;42.686;23.350;2022-09-21T11:51:22;1.40;;;1.30;;
2039;SDS011;1025;42.686;23.350;2022-09-21T11:53:59;1.37;;;1.37;;
2039;SDS011;1025;42.686;23.350;2022-09-21T11:56:40;1.00;;;1.00;;
2039;SDS011;1025;42.686;23.350;2022-09-21T11:59:13;0.93;;;0.93;;
2039;SDS011;1025;42.686;23.350;2022-09-21T12:01:47;1.23;;;1.13;;
2039;SDS011;1025;42.686;23.350;2022-09-21T12:07:09;1.00;;;1.00;;
2039;SDS011;1025;42.686;23.350;2022-09-21T12:12:22;1.20;;;1.10;;
2039;SDS011;1025;42.686;23.350;2022-09-21T12:14:53;0.87;;;0.87;;
2039;SDS011;1025;42.686;23.350;2022-09-21T12:17:26;2.40;;;1.00;;
2039;SDS011;1025;42.686;23.350;2022-09-21T12:19:55;1.23;;;1.20;;
2039;SDS011;1025;42.686;23.350;2022-09-21T12:22:28;1.67;;;1.40;;
2039;SDS011;1025;42.686;23.350;2022-09-21T12:24:58;1.50;;;1.40;;
2039;SDS011;1025;42.686;23.350;2022-09-21T12:27:27;0.90;;;0.90;;
2039;SDS011;1025;42.686;23.350;2022-09-21T12:29:56;2.00;;;2.00;;
2039;SDS011;1025;42.686;23.350;2022-09-21T12:32:27;1.50;;;1.20;;
2039;SDS011;1025;42.686;23.350;2022-09-21T12:34:56;1.60;;;1.50;;
2039;SDS011;1025;42.686;23.350;2022-09-21T12:37:25;1.50;;;1.40;;
2039;SDS011;1025;42.686;23.350;2022-09-21T12:39:57;9.53;;;1.20;;
2039;SDS011;1025;42.686;23.350;2022-09-21T12:45:18;1.17;;;1.10;;
2039;SDS011;1025;42.686;23.350;2022-09-21T12:47:47;2.00;;;1.43;;
2039;SDS011;1025;42.686;23.350;2022-09-21T12:50:18;1.30;;;1.30;;
2039;SDS011;1025;42.686;23.350;2022-09-21T12:52:46;0.90;;;0.90;;
2039;SDS011;1025;42.686;23.350;2022-09-21T12:55:19;0.93;;;0.93;;
2039;SDS011;1025;42.686;23.350;2022-09-21T12:57:51;1.33;;;1.23;;
2039;SDS011;1025;42.686;23.350;2022-09-21T13:00:20;0.90;;;0.90;;
2039;SDS011;1025;42.686;23.350;2022-09-21T13:02:48;1.50;;;1.40;;
2039;SDS011;1025;42.686;23.350;2022-09-21T13:05:20;0.80;;;0.80;;
2039;SDS011;1025;42.686;23.350;2022-09-21T13:07:57;0.90;;;0.90;;
2039;SDS011;1025;42.686;23.350;2022-09-21T13:10:36;4.17;;;1.50;;
2039;SDS011;1025;42.686;23.350;2022-09-21T13:13:05;0.80;;;0.80;;
2039;SDS011;1025;42.686;23.350;2022-09-21T13:15:40;1.33;;;1.17;;
2039;SDS011;1025;42.686;23.350;2022-09-21T13:18:14;2.47;;;2.30;;
2039;SDS011;1025;42.686;23.350;2022-09-21T13:20:42;1.20;;;1.20;;
2039;SDS011;1025;42.686;23.350;2022-09-21T13:23:12;1.80;;;1.43;;
2039;SDS011;1025;42.686;23.350;2022-09-21T13:25:41;1.43;;;1.17;;
2039;SDS011;1025;42.686;23.350;2022-09-21T13:28:19;1.10;;;1.10;;
2039;SDS011;1025;42.686;23.350;2022-09-21T13:30:48;1.30;;;1.20;;
2039;SDS011;1025;42.686;23.350;2022-09-21T13:33:31;1.10;;;1.10;;
2039;SDS011;1025;42.686;23.350;2022-09-21T13:36:09;1.30;;;1.30;;
2039;SDS011;1025;42.686;23.350;2022-09-21T13:41:28;6.63;;;1.30;;
2039;SDS011;1025;42.686;23.350;2022-09-21T13:44:01;8.00;;;1.10;;
2039;SDS011;1025;42.686;23.350;2022-09-21T13:49:16;1.20;;;1.10;;
2039;SDS011;1025;42.686;23.350;2022-09-21T13:51:49;0.90;;;0.90;;
2039;SDS011;1025;42.686;23.350;2022-09-21T13:54:16;1.30;;;1.20;;
2039;SDS011;1025;42.686;23.350;2022-09-21T13:56:47;1.20;;;1.20;;
2039;SDS011;1025;42.686;23.350;2022-09-21T13:59:22;1.47;;;1.20;;
2039;SDS011;1025;42.686;23.350;2022-09-21T14:01:50;1.80;;;1.70;;
2039;SDS011;1025;42.686;23.350;2022-09-21T14:04:19;1.13;;;1.13;;
2039;SDS011;1025;42.686;23.350;2022-09-21T14:06:48;2.87;;;1.37;;
2039;SDS011;1025;42.686;23.350;2022-09-21T14:09:18;1.40;;;1.30;;
2039;SDS011;1025;42.686;23.350;2022-09-21T14:11:52;2.40;;;2.20;;
2039;SDS011;1025;42.686;23.350;2022-09-21T14:14:21;1.53;;;1.43;;
2039;SDS011;1025;42.686;23.350;2022-09-21T14:16:56;3.03;;;2.00;;
2039;SDS011;1025;42.686;23.350;2022-09-21T14:27:37;1.70;;;1.60;;
2039;SDS011;1025;42.686;23.350;2022-09-21T14:30:15;1.27;;;1.27;;
2039;SDS011;1025;42.686;23.350;2022-09-21T14:32:42;3.80;;;1.60;;
2039;SDS011;1025;42.686;23.350;2022-09-21T14:35:12;1.77;;;1.67;;
2039;SDS011;1025;42.686;23.350;2022-09-21T14:37:41;1.90;;;1.80;;
2039;SDS011;1025;42.686;23.350;2022-09-21T14:40:16;2.07;;;1.97;;
2039;SDS011;1025;42.686;23.350;2022-09-21T14:42:45;2.10;;;2.00;;
2039;SDS011;1025;42.686;23.350;2022-09-21T14:45:14;1.60;;;1.60;;
2039;SDS011;1025;42.686;23.350;2022-09-21T14:47:54;4.30;;;1.60;;
2039;SDS011;1025;42.686;23.350;2022-09-21T14:50:30;1.20;;;1.20;;
2039;SDS011;1025;42.686;23.350;2022-09-21T14:53:04;1.57;;;1.57;;
2039;SDS011;1025;42.686;23.350;2022-09-21T14:55:34;1.53;;;1.50;;
2039;SDS011;1025;42.686;23.350;2022-09-21T14:58:16;1.70;;;1.60;;
2039;SDS011;1025;42.686;23.350;2022-09-21T15:00:45;1.33;;;1.30;;
2039;SDS011;1025;42.686;23.350;2022-09-21T15:03:26;1.93;;;1.83;;
2039;SDS011;1025;42.686;23.350;2022-09-21T15:05:55;2.27;;;2.17;;
2039;SDS011;1025;42.686;23.350;2022-09-21T15:08:27;1.80;;;1.70;;
2039;SDS011;1025;42.686;23.350;2022-09-21T15:11:19;1.17;;;1.17;;
2039;SDS011;1025;42.686;23.350;2022-09-21T15:14:02;1.67;;;1.67;;
2039;SDS011;1025;42.686;23.350;2022-09-21T15:16:33;6.53;;;2.47;;
2039;SDS011;1025;42.686;23.350;2022-09-21T15:19:11;2.30;;;2.17;;
2039;SDS011;1025;42.686;23.350;2022-09-21T15:21:39;2.87;;;2.47;;
2039;SDS011;1025;42.686;23.350;2022-09-21T15:24:09;1.77;;;1.67;;
2039;SDS011;1025;42.686;23.350;2022-09-21T15:26:41;2.33;;;2.13;;
2039;SDS011;1025;42.686;23.350;2022-09-21T15:29:15;2.20;;;2.10;;
2039;SDS011;1025;42.686;23.350;2022-09-21T15:31:45;1.60;;;1.50;;
2039;SDS011;1025;42.686;23.350;2022-09-21T15:34:12;3.27;;;2.13;;
2039;SDS011;1025;42.686;23.350;2022-09-21T15:36:40;1.73;;;1.63;;
2039;SDS011;1025;42.686;23.350;2022-09-21T15:39:18;1.70;;;1.57;;
2039;SDS011;1025;42.686;23.350;2022-09-21T15:41:47;1.53;;;1.43;;
2039;SDS011;1025;42.686;23.350;2022-09-21T15:44:16;1.67;;;1.60;;
2039;SDS011;1025;42.686;23.350;2022-09-21T15:46:44;2.13;;;1.53;;